sensor_id;sensor_type;location;lat;lon;timestamp;temperature;humidity
23683;DHT22;24897;53.514;10.482;2022-12-29T00:36:55;8.80;99.90
23683;DHT22;24897;53.514;10.482;2022-12-29T00:57:06;8.90;99.90
23683;DHT22;24897;53.514;10.482;2022-12-29T01:16:28;9.10;99.90
23683;DHT22;24897;53.514;10.482;2022-12-29T01:27:31;9.20;99.90
23683;DHT22;24897;53.514;10.482;2022-12-29T01:41:15;9.50;99.90
23683;DHT22;24897;53.514;10.482;2022-12-29T01:44:00;9.40;99.90
23683;DHT22;24897;53.514;10.482;2022-12-29T01:46:48;9.10;99.90
23683;DHT22;24897;53.514;10.482;2022-12-29T01:49:34;9.90;99.90
23683;DHT22;24897;53.514;10.482;2022-12-29T01:55:04;9.50;99.90
23683;DHT22;24897;53.514;10.482;2022-12-29T01:57:51;9.50;99.90
23683;DHT22;24897;53.514;10.482;2022-12-29T02:00:37;9.90;99.90
23683;DHT22;24897;53.514;10.482;2022-12-29T02:03:22;9.00;99.90
23683;DHT22;24897;53.514;10.482;2022-12-29T02:06:22;9.30;99.90
23683;DHT22;24897;53.514;10.482;2022-12-29T02:09:06;9.40;99.90
23683;DHT22;24897;53.514;10.482;2022-12-29T02:11:51;8.50;99.90
23683;DHT22;24897;53.514;10.482;2022-12-29T02:45:41;9.90;99.90
23683;DHT22;24897;53.514;10.482;2022-12-29T02:48:41;9.60;99.90
23683;DHT22;24897;53.514;10.482;2022-12-29T02:51:42;9.40;99.90
23683;DHT22;24897;53.514;10.482;2022-12-29T02:54:27;9.70;99.90
23683;DHT22;24897;53.514;10.482;2022-12-29T03:00:13;9.40;99.90
23683;DHT22;24897;53.514;10.482;2022-12-29T03:16:46;9.90;99.90
23683;DHT22;24897;53.514;10.482;2022-12-29T03:19:35;9.60;99.90
23683;DHT22;24897;53.514;10.482;2022-12-29T03:22:27;10.10;99.90
23683;DHT22;24897;53.514;10.482;2022-12-29T03:25:25;10.20;99.90
23683;DHT22;24897;53.514;10.482;2022-12-29T03:28:20;9.70;99.90
23683;DHT22;24897;53.514;10.482;2022-12-29T03:31:07;9.20;99.90
23683;DHT22;24897;53.514;10.482;2022-12-29T03:33:51;9.80;99.90
23683;DHT22;24897;53.514;10.482;2022-12-29T03:36:51;10.30;99.90
23683;DHT22;24897;53.514;10.482;2022-12-29T03:39:37;10.30;99.90
23683;DHT22;24897;53.514;10.482;2022-12-29T03:42:23;11.00;99.90
23683;DHT22;24897;53.514;10.482;2022-12-29T03:45:09;9.70;99.90
23683;DHT22;24897;53.514;10.482;2022-12-29T03:47:54;10.40;99.90
23683;DHT22;24897;53.514;10.482;2022-12-29T03:50:38;11.20;99.90
23683;DHT22;24897;53.514;10.482;2022-12-29T03:53:23;10.50;99.90
23683;DHT22;24897;53.514;10.482;2022-12-29T03:56:07;10.20;99.90
23683;DHT22;24897;53.514;10.482;2022-12-29T03:58:51;10.30;99.90
23683;DHT22;24897;53.514;10.482;2022-12-29T04:04:20;10.40;99.90
23683;DHT22;24897;53.514;10.482;2022-12-29T04:07:04;10.00;99.90
23683;DHT22;24897;53.514;10.482;2022-12-29T04:09:49;10.10;99.90
23683;DHT22;24897;53.514;10.482;2022-12-29T04:12:33;10.40;99.90
23683;DHT22;24897;53.514;10.482;2022-12-29T04:15:17;10.10;99.90
23683;DHT22;24897;53.514;10.482;2022-12-29T04:18:01;10.20;99.90
23683;DHT22;24897;53.514;10.482;2022-12-29T04:20:45;9.70;99.90
23683;DHT22;24897;53.514;10.482;2022-12-29T04:23:44;10.20;99.90
23683;DHT22;24897;53.514;10.482;2022-12-29T04:26:28;10.40;99.90
23683;DHT22;24897;53.514;10.482;2022-12-29T04:31:57;10.50;99.90
23683;DHT22;24897;53.514;10.482;2022-12-29T04:34:41;10.60;99.90
23683;DHT22;24897;53.514;10.482;2022-12-29T04:40:10;9.80;99.90
23683;DHT22;24897;53.514;10.482;2022-12-29T04:42:55;9.50;99.90
23683;DHT22;24897;53.514;10.482;2022-12-29T04:45:48;10.80;99.90
23683;DHT22;24897;53.514;10.482;2022-12-29T04:48:32;10.10;99.90
23683;DHT22;24897;53.514;10.482;2022-12-29T04:51:16;10.70;99.90
23683;DHT22;24897;53.514;10.482;2022-12-29T04:59:30;10.70;99.90
23683;DHT22;24897;53.514;10.482;2022-12-29T05:02:14;10.90;99.90
23683;DHT22;24897;53.514;10.482;2022-12-29T05:04:58;10.80;99.90
23683;DHT22;24897;53.514;10.482;2022-12-29T05:07:42;10.30;99.90
23683;DHT22;24897;53.514;10.482;2022-12-29T05:10:27;10.20;99.90
23683;DHT22;24897;53.514;10.482;2022-12-29T05:18:40;9.90;99.90
23683;DHT22;24897;53.514;10.482;2022-12-29T05:21:25;11.00;99.90
23683;DHT22;24897;53.514;10.482;2022-12-29T05:24:09;10.10;99.90
23683;DHT22;24897;53.514;10.482;2022-12-29T05:26:53;11.40;99.90
23683;DHT22;24897;53.514;10.482;2022-12-29T05:29:37;9.30;99.90
23683;DHT22;24897;53.514;10.482;2022-12-29T05:32:21;10.00;99.90
23683;DHT22;24897;53.514;10.482;2022-12-29T05:37:50;10.70;99.90
23683;DHT22;24897;53.514;10.482;2022-12-29T05:40:34;10.10;99.90
23683;DHT22;24897;53.514;10.482;2022-12-29T05:43:18;10.00;99.90
23683;DHT22;24897;53.514;10.482;2022-12-29T05:46:03;9.60;99.90
23683;DHT22;24897;53.514;10.482;2022-12-29T05:51:32;9.70;99.90
23683;DHT22;24897;53.514;10.482;2022-12-29T05:54:16;10.10;99.90
23683;DHT22;24897;53.514;10.482;2022-12-29T05:59:44;10.10;99.90
23683;DHT22;24897;53.514;10.482;2022-12-29T06:02:28;10.70;99.90
23683;DHT22;24897;53.514;10.482;2022-12-29T06:05:12;10.10;99.90
23683;DHT22;24897;53.514;10.482;2022-12-29T06:10:41;10.30;99.90
23683;DHT22;24897;53.514;10.482;2022-12-29T06:13:25;10.30;99.90
23683;DHT22;24897;53.514;10.482;2022-12-29T06:16:09;11.10;99.90
23683;DHT22;24897;53.514;10.482;2022-12-29T06:18:53;10.70;99.90
23683;DHT22;24897;53.514;10.482;2022-12-29T06:24:21;10.60;99.90
23683;DHT22;24897;53.514;10.482;2022-12-29T06:27:06;10.40;99.90
23683;DHT22;24897;53.514;10.482;2022-12-29T06:29:53;10.70;99.90
23683;DHT22;24897;53.514;10.482;2022-12-29T06:32:38;10.30;99.90
23683;DHT22;24897;53.514;10.482;2022-12-29T06:35:22;10.30;99.90
23683;DHT22;24897;53.514;10.482;2022-12-29T06:38:06;10.80;99.90
23683;DHT22;24897;53.514;10.482;2022-12-29T06:40:50;10.10;99.90
23683;DHT22;24897;53.514;10.482;2022-12-29T07:11:04;10.30;99.90
23683;DHT22;24897;53.514;10.482;2022-12-29T08:19:45;10.00;99.90
23683;DHT22;24897;53.514;10.482;2022-12-29T09:03:45;10.10;99.90
23683;DHT22;24897;53.514;10.482;2022-12-29T09:14:46;10.30;99.90
23683;DHT22;24897;53.514;10.482;2022-12-29T09:42:39;10.20;99.90
23683;DHT22;24897;53.514;10.482;2022-12-29T09:45:32;10.20;99.90
23683;DHT22;24897;53.514;10.482;2022-12-29T09:48:22;10.30;99.90
23683;DHT22;24897;53.514;10.482;2022-12-29T09:51:11;10.30;99.90
23683;DHT22;24897;53.514;10.482;2022-12-29T09:54:02;10.30;99.90
23683;DHT22;24897;53.514;10.482;2022-12-29T09:56:49;10.30;99.90
23683;DHT22;24897;53.514;10.482;2022-12-29T09:59:45;10.30;99.90
23683;DHT22;24897;53.514;10.482;2022-12-29T10:06:14;10.20;99.90
23683;DHT22;24897;53.514;10.482;2022-12-29T10:09:15;10.40;99.90
23683;DHT22;24897;53.514;10.482;2022-12-29T10:15:48;10.30;99.90
23683;DHT22;24897;53.514;10.482;2022-12-29T10:24:55;10.30;99.90
23683;DHT22;24897;53.514;10.482;2022-12-29T10:27:48;10.40;99.90
23683;DHT22;24897;53.514;10.482;2022-12-29T10:30:34;10.10;99.90
23683;DHT22;24897;53.514;10.482;2022-12-29T10:33:22;10.50;99.90
23683;DHT22;24897;53.514;10.482;2022-12-29T10:36:33;10.90;99.90
23683;DHT22;24897;53.514;10.482;2022-12-29T10:39:23;10.50;99.90
23683;DHT22;24897;53.514;10.482;2022-12-29T10:42:28;11.10;99.90
23683;DHT22;24897;53.514;10.482;2022-12-29T10:45:14;10.50;99.90
23683;DHT22;24897;53.514;10.482;2022-12-29T10:48:18;10.60;99.90
23683;DHT22;24897;53.514;10.482;2022-12-29T10:51:07;10.70;99.90
23683;DHT22;24897;53.514;10.482;2022-12-29T10:53:59;11.00;99.90
23683;DHT22;24897;53.514;10.482;2022-12-29T10:57:00;10.00;99.90
23683;DHT22;24897;53.514;10.482;2022-12-29T10:59:46;10.70;99.90
23683;DHT22;24897;53.514;10.482;2022-12-29T11:05:37;11.00;99.90
23683;DHT22;24897;53.514;10.482;2022-12-29T11:08:28;11.50;99.90
23683;DHT22;24897;53.514;10.482;2022-12-29T11:11:26;11.60;99.90
23683;DHT22;24897;53.514;10.482;2022-12-29T11:14:21;11.30;99.90
23683;DHT22;24897;53.514;10.482;2022-12-29T11:17:15;11.20;99.90
23683;DHT22;24897;53.514;10.482;2022-12-29T11:20:24;11.40;99.90
23683;DHT22;24897;53.514;10.482;2022-12-29T11:26:14;11.40;99.90
23683;DHT22;24897;53.514;10.482;2022-12-29T11:29:11;11.50;99.90
23683;DHT22;24897;53.514;10.482;2022-12-29T11:32:20;11.00;99.90
23683;DHT22;24897;53.514;10.482;2022-12-29T11:35:04;11.10;99.90
23683;DHT22;24897;53.514;10.482;2022-12-29T11:37:56;10.60;99.90
23683;DHT22;24897;53.514;10.482;2022-12-29T11:43:33;11.40;99.90
23683;DHT22;24897;53.514;10.482;2022-12-29T11:46:25;11.30;99.90
23683;DHT22;24897;53.514;10.482;2022-12-29T11:49:13;10.20;99.90
23683;DHT22;24897;53.514;10.482;2022-12-29T11:52:03;11.00;99.90
23683;DHT22;24897;53.514;10.482;2022-12-29T11:54:47;11.20;99.90
23683;DHT22;24897;53.514;10.482;2022-12-29T11:57:33;11.20;99.90
23683;DHT22;24897;53.514;10.482;2022-12-29T12:00:21;11.50;99.90
23683;DHT22;24897;53.514;10.482;2022-12-29T12:03:15;11.00;99.90
23683;DHT22;24897;53.514;10.482;2022-12-29T12:06:02;11.60;99.90
23683;DHT22;24897;53.514;10.482;2022-12-29T12:08:59;10.90;99.90
23683;DHT22;24897;53.514;10.482;2022-12-29T12:11:46;11.20;99.90
23683;DHT22;24897;53.514;10.482;2022-12-29T12:14:34;11.30;99.90
23683;DHT22;24897;53.514;10.482;2022-12-29T12:17:33;10.60;99.90
23683;DHT22;24897;53.514;10.482;2022-12-29T12:20:32;10.90;99.90
23683;DHT22;24897;53.514;10.482;2022-12-29T12:23:32;10.90;99.90
23683;DHT22;24897;53.514;10.482;2022-12-29T12:26:49;11.20;99.90
23683;DHT22;24897;53.514;10.482;2022-12-29T12:32:41;10.50;99.90
23683;DHT22;24897;53.514;10.482;2022-12-29T12:38:51;10.90;99.90
23683;DHT22;24897;53.514;10.482;2022-12-29T13:14:24;11.10;99.90
23683;DHT22;24897;53.514;10.482;2022-12-29T13:17:35;11.40;99.90
23683;DHT22;24897;53.514;10.482;2022-12-29T13:20:45;11.70;99.90
23683;DHT22;24897;53.514;10.482;2022-12-29T13:26:46;10.80;99.90
23683;DHT22;24897;53.514;10.482;2022-12-29T13:32:42;10.70;99.90
23683;DHT22;24897;53.514;10.482;2022-12-29T13:38:19;11.20;99.90
23683;DHT22;24897;53.514;10.482;2022-12-29T13:41:09;11.20;99.90
23683;DHT22;24897;53.514;10.482;2022-12-29T13:43:55;11.20;99.90
23683;DHT22;24897;53.514;10.482;2022-12-29T13:46:44;10.90;99.90
23683;DHT22;24897;53.514;10.482;2022-12-29T13:52:27;10.90;99.90
23683;DHT22;24897;53.514;10.482;2022-12-29T13:55:26;11.20;99.90
23683;DHT22;24897;53.514;10.482;2022-12-29T13:58:28;11.00;99.90
23683;DHT22;24897;53.514;10.482;2022-12-29T14:04:14;11.10;99.90
23683;DHT22;24897;53.514;10.482;2022-12-29T14:12:31;11.50;99.90
23683;DHT22;24897;53.514;10.482;2022-12-29T14:15:22;10.90;99.90
23683;DHT22;24897;53.514;10.482;2022-12-29T14:23:46;11.50;99.90
23683;DHT22;24897;53.514;10.482;2022-12-29T14:35:42;9.90;99.90
23683;DHT22;24897;53.514;10.482;2022-12-29T14:38:28;10.30;99.90
23683;DHT22;24897;53.514;10.482;2022-12-29T14:41:24;10.00;99.90
23683;DHT22;24897;53.514;10.482;2022-12-29T14:44:18;9.80;99.90
23683;DHT22;24897;53.514;10.482;2022-12-29T14:47:07;9.40;99.90
23683;DHT22;24897;53.514;10.482;2022-12-29T14:55:45;9.50;99.90
23683;DHT22;24897;53.514;10.482;2022-12-29T14:58:59;9.50;99.90
23683;DHT22;24897;53.514;10.482;2022-12-29T15:01:50;10.20;99.90
23683;DHT22;24897;53.514;10.482;2022-12-29T15:07:20;9.00;99.90
23683;DHT22;24897;53.514;10.482;2022-12-29T15:10:07;9.20;99.90
23683;DHT22;24897;53.514;10.482;2022-12-29T15:13:03;9.40;99.90
23683;DHT22;24897;53.514;10.482;2022-12-29T15:15:48;9.00;99.90
23683;DHT22;24897;53.514;10.482;2022-12-29T15:18:33;8.50;99.90
23683;DHT22;24897;53.514;10.482;2022-12-29T15:21:38;9.50;99.90
23683;DHT22;24897;53.514;10.482;2022-12-29T15:24:25;8.90;99.90
23683;DHT22;24897;53.514;10.482;2022-12-29T15:27:15;9.20;99.90
23683;DHT22;24897;53.514;10.482;2022-12-29T15:30:04;8.60;99.90
23683;DHT22;24897;53.514;10.482;2022-12-29T15:38:25;8.90;99.90
23683;DHT22;24897;53.514;10.482;2022-12-29T15:41:43;8.60;99.90
23683;DHT22;24897;53.514;10.482;2022-12-29T15:47:30;9.30;99.90
23683;DHT22;24897;53.514;10.482;2022-12-29T15:50:34;9.20;99.90
23683;DHT22;24897;53.514;10.482;2022-12-29T15:53:26;8.80;99.90
23683;DHT22;24897;53.514;10.482;2022-12-29T15:58:57;8.90;99.90
23683;DHT22;24897;53.514;10.482;2022-12-29T16:01:42;9.00;99.90
23683;DHT22;24897;53.514;10.482;2022-12-29T16:04:29;7.80;99.90
23683;DHT22;24897;53.514;10.482;2022-12-29T16:10:33;9.40;99.90
23683;DHT22;24897;53.514;10.482;2022-12-29T16:13:32;9.00;99.90
23683;DHT22;24897;53.514;10.482;2022-12-29T16:16:31;9.00;99.90
23683;DHT22;24897;53.514;10.482;2022-12-29T16:19:43;9.10;99.90
23683;DHT22;24897;53.514;10.482;2022-12-29T16:22:37;9.00;99.90
23683;DHT22;24897;53.514;10.482;2022-12-29T16:25:29;8.80;99.90
23683;DHT22;24897;53.514;10.482;2022-12-29T16:28:21;9.10;99.90
23683;DHT22;24897;53.514;10.482;2022-12-29T16:31:17;9.10;99.90
23683;DHT22;24897;53.514;10.482;2022-12-29T16:37:32;8.00;99.90
23683;DHT22;24897;53.514;10.482;2022-12-29T16:48:46;9.20;99.90
23683;DHT22;24897;53.514;10.482;2022-12-29T16:51:36;9.70;99.90
23683;DHT22;24897;53.514;10.482;2022-12-29T16:54:33;9.10;99.90
23683;DHT22;24897;53.514;10.482;2022-12-29T16:57:24;9.00;99.90
23683;DHT22;24897;53.514;10.482;2022-12-29T17:00:21;9.10;99.90
23683;DHT22;24897;53.514;10.482;2022-12-29T17:05:50;8.80;99.90
23683;DHT22;24897;53.514;10.482;2022-12-29T17:08:40;9.00;99.90
23683;DHT22;24897;53.514;10.482;2022-12-29T17:11:33;8.90;99.90
23683;DHT22;24897;53.514;10.482;2022-12-29T17:14:38;9.40;99.90
23683;DHT22;24897;53.514;10.482;2022-12-29T17:17:33;8.60;99.90
23683;DHT22;24897;53.514;10.482;2022-12-29T17:20:20;8.80;99.90
23683;DHT22;24897;53.514;10.482;2022-12-29T17:23:13;9.20;99.90
23683;DHT22;24897;53.514;10.482;2022-12-29T17:28:45;9.20;99.90
23683;DHT22;24897;53.514;10.482;2022-12-29T17:31:30;9.40;99.90
23683;DHT22;24897;53.514;10.482;2022-12-29T17:34:14;9.50;99.90
23683;DHT22;24897;53.514;10.482;2022-12-29T17:39:44;8.70;99.90
23683;DHT22;24897;53.514;10.482;2022-12-29T17:45:29;9.20;99.90
23683;DHT22;24897;53.514;10.482;2022-12-29T17:48:16;9.40;99.90
23683;DHT22;24897;53.514;10.482;2022-12-29T17:51:00;9.20;99.90
23683;DHT22;24897;53.514;10.482;2022-12-29T17:53:45;8.90;99.90
23683;DHT22;24897;53.514;10.482;2022-12-29T17:59:14;8.60;99.90
23683;DHT22;24897;53.514;10.482;2022-12-29T18:04:43;9.10;99.90
23683;DHT22;24897;53.514;10.482;2022-12-29T18:07:28;8.80;99.90
23683;DHT22;24897;53.514;10.482;2022-12-29T18:10:13;9.00;99.90
23683;DHT22;24897;53.514;10.482;2022-12-29T18:12:59;8.80;99.90
23683;DHT22;24897;53.514;10.482;2022-12-29T18:15:43;8.70;99.90
23683;DHT22;24897;53.514;10.482;2022-12-29T18:18:27;9.00;99.90
23683;DHT22;24897;53.514;10.482;2022-12-29T18:21:19;8.70;99.90
23683;DHT22;24897;53.514;10.482;2022-12-29T18:24:04;8.80;99.90
23683;DHT22;24897;53.514;10.482;2022-12-29T18:26:48;9.20;99.90
23683;DHT22;24897;53.514;10.482;2022-12-29T18:29:32;8.60;99.90
23683;DHT22;24897;53.514;10.482;2022-12-29T18:32:19;8.80;99.90
23683;DHT22;24897;53.514;10.482;2022-12-29T18:35:14;8.70;99.90
23683;DHT22;24897;53.514;10.482;2022-12-29T18:37:58;9.20;99.90
23683;DHT22;24897;53.514;10.482;2022-12-29T18:40:42;9.00;99.90
23683;DHT22;24897;53.514;10.482;2022-12-29T18:43:27;9.10;99.90
23683;DHT22;24897;53.514;10.482;2022-12-29T18:46:12;8.80;99.90
23683;DHT22;24897;53.514;10.482;2022-12-29T18:48:56;8.60;99.90
23683;DHT22;24897;53.514;10.482;2022-12-29T18:51:40;8.60;99.90
23683;DHT22;24897;53.514;10.482;2022-12-29T18:54:30;9.10;99.90
23683;DHT22;24897;53.514;10.482;2022-12-29T18:57:15;8.80;99.90
23683;DHT22;24897;53.514;10.482;2022-12-29T19:02:45;9.20;99.90
23683;DHT22;24897;53.514;10.482;2022-12-29T19:05:38;8.90;99.90
23683;DHT22;24897;53.514;10.482;2022-12-29T19:16:38;8.10;99.90
23683;DHT22;24897;53.514;10.482;2022-12-29T19:22:08;9.10;99.90
23683;DHT22;24897;53.514;10.482;2022-12-29T19:27:37;8.70;99.90
23683;DHT22;24897;53.514;10.482;2022-12-29T19:30:21;9.40;99.90
23683;DHT22;24897;53.514;10.482;2022-12-29T19:35:51;9.00;99.90
23683;DHT22;24897;53.514;10.482;2022-12-29T19:38:35;9.00;99.90
23683;DHT22;24897;53.514;10.482;2022-12-29T19:41:19;8.50;99.90
23683;DHT22;24897;53.514;10.482;2022-12-29T19:44:03;9.50;99.90
23683;DHT22;24897;53.514;10.482;2022-12-29T19:46:47;9.50;99.90
23683;DHT22;24897;53.514;10.482;2022-12-29T19:52:16;9.00;99.90
23683;DHT22;24897;53.514;10.482;2022-12-29T19:57:44;9.40;99.90
23683;DHT22;24897;53.514;10.482;2022-12-29T20:03:13;9.10;99.90
23683;DHT22;24897;53.514;10.482;2022-12-29T20:05:57;9.50;99.90
23683;DHT22;24897;53.514;10.482;2022-12-29T20:08:42;9.10;99.90
23683;DHT22;24897;53.514;10.482;2022-12-29T20:11:26;8.90;99.90
23683;DHT22;24897;53.514;10.482;2022-12-29T20:16:56;9.00;99.90
23683;DHT22;24897;53.514;10.482;2022-12-29T20:19:41;9.80;99.90
23683;DHT22;24897;53.514;10.482;2022-12-29T20:22:25;10.00;99.90
23683;DHT22;24897;53.514;10.482;2022-12-29T20:33:24;10.90;99.90
23683;DHT22;24897;53.514;10.482;2022-12-29T20:36:12;8.80;99.90
23683;DHT22;24897;53.514;10.482;2022-12-29T20:38:59;8.10;99.90
23683;DHT22;24897;53.514;10.482;2022-12-29T20:41:45;8.40;99.90
23683;DHT22;24897;53.514;10.482;2022-12-29T20:44:31;8.20;99.90
23683;DHT22;24897;53.514;10.482;2022-12-29T20:52:45;7.10;99.90
23683;DHT22;24897;53.514;10.482;2022-12-29T21:01:05;7.60;99.90
23683;DHT22;24897;53.514;10.482;2022-12-29T21:03:50;7.80;99.90
23683;DHT22;24897;53.514;10.482;2022-12-29T21:06:35;7.30;99.90
23683;DHT22;24897;53.514;10.482;2022-12-29T21:12:04;6.70;99.90
23683;DHT22;24897;53.514;10.482;2022-12-29T21:14:49;7.50;99.90
23683;DHT22;24897;53.514;10.482;2022-12-29T21:17:34;7.10;99.90
23683;DHT22;24897;53.514;10.482;2022-12-29T21:31:28;7.10;99.90
23683;DHT22;24897;53.514;10.482;2022-12-29T21:36:57;8.40;99.90
23683;DHT22;24897;53.514;10.482;2022-12-29T21:39:42;8.10;99.90
23683;DHT22;24897;53.514;10.482;2022-12-29T21:42:26;7.60;99.90
23683;DHT22;24897;53.514;10.482;2022-12-29T21:51:07;7.10;99.90
23683;DHT22;24897;53.514;10.482;2022-12-29T21:57:16;6.70;99.90
23683;DHT22;24897;53.514;10.482;2022-12-29T22:00:21;7.30;99.90
23683;DHT22;24897;53.514;10.482;2022-12-29T22:03:24;7.00;99.90
23683;DHT22;24897;53.514;10.482;2022-12-29T22:06:27;6.90;99.90
23683;DHT22;24897;53.514;10.482;2022-12-29T22:12:34;7.40;99.90
23683;DHT22;24897;53.514;10.482;2022-12-29T22:15:37;6.80;99.90
23683;DHT22;24897;53.514;10.482;2022-12-29T22:21:09;7.30;99.90
23683;DHT22;24897;53.514;10.482;2022-12-29T22:26:38;7.20;99.90
23683;DHT22;24897;53.514;10.482;2022-12-29T22:32:07;7.70;99.90
23683;DHT22;24897;53.514;10.482;2022-12-29T22:34:51;7.60;99.90
23683;DHT22;24897;53.514;10.482;2022-12-29T22:37:36;7.20;99.90
23683;DHT22;24897;53.514;10.482;2022-12-29T22:40:21;7.00;99.90
23683;DHT22;24897;53.514;10.482;2022-12-29T22:43:05;6.70;99.90
23683;DHT22;24897;53.514;10.482;2022-12-29T22:45:49;6.90;99.90
23683;DHT22;24897;53.514;10.482;2022-12-29T22:48:34;6.80;99.90
23683;DHT22;24897;53.514;10.482;2022-12-29T22:51:18;6.90;99.90
23683;DHT22;24897;53.514;10.482;2022-12-29T22:54:03;7.40;99.90
23683;DHT22;24897;53.514;10.482;2022-12-29T22:56:47;6.90;99.90
23683;DHT22;24897;53.514;10.482;2022-12-29T22:59:31;6.80;99.90
23683;DHT22;24897;53.514;10.482;2022-12-29T23:07:46;7.00;99.90
23683;DHT22;24897;53.514;10.482;2022-12-29T23:13:14;6.90;99.90
23683;DHT22;24897;53.514;10.482;2022-12-29T23:18:45;6.90;99.90
23683;DHT22;24897;53.514;10.482;2022-12-29T23:21:30;6.70;99.90
23683;DHT22;24897;53.514;10.482;2022-12-29T23:24:15;8.10;99.90
23683;DHT22;24897;53.514;10.482;2022-12-29T23:26:59;7.50;99.90
23683;DHT22;24897;53.514;10.482;2022-12-29T23:29:43;7.00;99.90
23683;DHT22;24897;53.514;10.482;2022-12-29T23:32:27;7.10;99.90
23683;DHT22;24897;53.514;10.482;2022-12-29T23:35:11;7.10;99.90
23683;DHT22;24897;53.514;10.482;2022-12-29T23:40:40;7.00;99.90
23683;DHT22;24897;53.514;10.482;2022-12-29T23:43:24;7.40;99.90
23683;DHT22;24897;53.514;10.482;2022-12-29T23:46:13;6.80;99.90
23683;DHT22;24897;53.514;10.482;2022-12-29T23:51:42;7.60;99.90
23683;DHT22;24897;53.514;10.482;2022-12-29T23:54:26;7.40;99.90
23683;DHT22;24897;53.514;10.482;2022-12-29T23:59:54;6.20;99.90
